Time;durP1;ratioP1;P1;durP2;ratioP2;P2;SDS_P1;SDS_P2;PMS_P1;PMS_P2;Temp;Humidity;BMP_temperature;BMP_pressure;BME280_temperature;BME280_humidity;BME280_pressure;Samples;Min_cycle;Max_cycle;Signal;HPM_P1;HPM_P2
2021/06/17 00:01:48;;;;;;;5.47;3.88;;;21.00;68.00;;;;;;4916814;29;20035;-80
2021/06/17 00:04:14;;;;;;;5.57;4.68;;;21.00;68.10;;;;;;4922409;29;20027;-78
2021/06/17 00:06:40;;;;;;;4.40;3.72;;;21.00;68.40;;;;;;4913590;29;20529;-80
2021/06/17 00:09:06;;;;;;;6.88;3.90;;;20.90;68.40;;;;;;4915067;29;20128;-79
2021/06/17 00:11:31;;;;;;;5.32;3.90;;;20.80;68.80;;;;;;4919298;29;20031;-78
2021/06/17 00:13:57;;;;;;;6.35;4.43;;;20.80;69.00;;;;;;4913718;29;20024;-80
2021/06/17 00:16:23;;;;;;;6.57;3.95;;;20.80;69.30;;;;;;4915888;29;20028;-78
2021/06/17 00:18:49;;;;;;;5.18;4.40;;;20.70;69.40;;;;;;4917478;29;20035;-79
2021/06/17 00:21:14;;;;;;;6.70;3.95;;;20.70;69.80;;;;;;4917122;29;20063;-80
2021/06/17 00:23:40;;;;;;;6.80;3.95;;;20.70;70.00;;;;;;4905697;29;20028;-80
2021/06/17 00:26:05;;;;;;;9.40;4.28;;;20.70;70.30;;;;;;4912976;29;20051;-79
2021/06/17 00:28:31;;;;;;;6.63;4.63;;;20.70;70.40;;;;;;4913051;29;20488;-79
2021/06/17 00:30:58;;;;;;;7.00;4.20;;;20.60;70.80;;;;;;4913066;29;20114;-79
2021/06/17 00:33:24;;;;;;;4.72;4.22;;;20.60;70.80;;;;;;4915027;29;20088;-77
2021/06/17 00:35:50;;;;;;;5.60;5.00;;;20.70;71.20;;;;;;4904751;29;20449;-80
2021/06/17 00:38:16;;;;;;;4.55;4.00;;;20.60;71.20;;;;;;4913991;29;20059;-80
2021/06/17 00:40:43;;;;;;;10.90;5.47;;;20.50;71.60;;;;;;4909052;29;20119;-79
2021/06/17 00:43:09;;;;;;;9.32;5.18;;;20.50;72.00;;;;;;4913074;29;20466;-80
2021/06/17 00:45:39;;;;;;;6.80;4.60;;;20.50;72.20;;;;;;4913255;29;20036;-83
2021/06/17 00:48:06;;;;;;;5.13;4.63;;;20.50;72.60;;;;;;4913418;29;20370;-82
2021/06/17 00:50:40;;;;;;;5.50;4.45;;;20.50;72.80;;;;;;4915972;29;20059;-80
2021/06/17 00:53:13;;;;;;;6.47;4.88;;;20.40;73.00;;;;;;4914449;29;20032;-81
2021/06/17 00:55:41;;;;;;;5.15;4.65;;;20.40;73.90;;;;;;4914264;29;20024;-80
2021/06/17 00:58:07;;;;;;;6.13;4.68;;;20.40;73.60;;;;;;4913110;29;20036;-83
2021/06/17 01:00:33;;;;;;;7.05;4.50;;;20.40;74.50;;;;;;4913525;29;20044;-82
2021/06/17 01:02:59;;;;;;;5.72;4.72;;;20.40;74.00;;;;;;4913127;29;20397;-79
2021/06/17 01:05:26;;;;;;;5.35;4.85;;;20.30;74.30;;;;;;4913264;29;20032;-79
2021/06/17 01:08:03;;;;;;;7.55;5.80;;;20.30;74.60;;;;;;4912660;29;20042;-82
2021/06/17 01:10:51;;;;;;;5.57;5.00;;;20.30;74.80;;;;;;4913353;29;20032;-83
2021/06/17 01:13:28;;;;;;;7.03;4.82;;;20.30;74.70;;;;;;4910104;29;20501;-79
2021/06/17 01:16:04;;;;;;;5.85;5.30;;;20.30;75.40;;;;;;4913885;29;20120;-80
2021/06/17 01:18:31;;;;;;;7.35;5.70;;;20.20;75.70;;;;;;4913762;29;20139;-83
2021/06/17 01:20:58;;;;;;;7.13;4.95;;;20.20;76.00;;;;;;4903919;29;20028;-80
2021/06/17 01:23:29;;;;;;;6.35;5.13;;;20.20;76.90;;;;;;4913027;29;20123;-80
2021/06/17 01:26:15;;;;;;;10.18;5.70;;;20.20;76.60;;;;;;4913240;29;20024;-80
2021/06/17 01:28:42;;;;;;;7.30;5.25;;;20.10;77.00;;;;;;4919980;29;20362;-79
2021/06/17 01:31:11;;;;;;;8.10;5.50;;;20.10;77.30;;;;;;4902776;29;20087;-79
2021/06/17 01:33:41;;;;;;;7.65;6.07;;;20.00;77.60;;;;;;4912546;29;20032;-79
2021/06/17 01:36:29;;;;;;;6.30;5.65;;;20.00;78.00;;;;;;4912807;29;20050;-78
2021/06/17 01:38:58;;;;;;;6.30;5.70;;;19.90;78.20;;;;;;4899686;29;20032;-78
2021/06/17 01:41:27;;;;;;;6.50;5.55;;;19.90;78.80;;;;;;4911604;29;20555;-78
2021/06/17 01:43:53;;;;;;;7.95;5.55;;;19.90;79.10;;;;;;4914744;29;20028;-79
2021/06/17 01:46:20;;;;;;;8.85;5.63;;;19.80;79.60;;;;;;4912050;29;20039;-78
2021/06/17 01:48:50;;;;;;;10.20;5.63;;;19.80;80.10;;;;;;4912655;29;20142;-78
2021/06/17 01:51:20;;;;;;;8.48;5.75;;;19.80;80.70;;;;;;4909186;29;20032;-78
2021/06/17 01:53:47;;;;;;;6.30;5.70;;;19.80;81.20;;;;;;4912623;29;20080;-78
2021/06/17 01:56:15;;;;;;;8.23;5.60;;;19.80;81.40;;;;;;4912463;29;20028;-77
2021/06/17 01:58:41;;;;;;;8.73;6.45;;;19.80;82.00;;;;;;4911694;29;20017;-78
2021/06/17 02:01:07;;;;;;;10.50;6.25;;;19.80;82.30;;;;;;4912721;29;20044;-79
2021/06/17 02:03:33;;;;;;;8.05;6.20;;;19.70;82.90;;;;;;4914551;29;20063;-78
2021/06/17 02:06:00;;;;;;;6.63;5.93;;;19.70;83.60;;;;;;4919067;29;20434;-78
2021/06/17 02:08:25;;;;;;;9.68;6.75;;;19.60;84.40;;;;;;4916135;29;20028;-78
2021/06/17 02:10:51;;;;;;;6.80;5.90;;;19.50;85.50;;;;;;4919068;29;20587;-78
2021/06/17 02:13:18;;;;;;;9.00;6.75;;;19.60;86.20;;;;;;4916024;29;20112;-78
2021/06/17 02:15:46;;;;;;;6.53;5.80;;;19.50;86.50;;;;;;4912240;29;20032;-81
2021/06/17 02:18:15;;;;;;;8.75;6.80;;;19.50;87.00;;;;;;4916762;29;20481;-77
2021/06/17 02:20:41;;;;;;;7.97;7.18;;;19.50;87.90;;;;;;4915894;29;20036;-77
2021/06/17 02:23:13;;;;;;;9.88;6.72;;;19.50;88.50;;;;;;4916153;29;20032;-78
2021/06/17 02:25:40;;;;;;;11.27;6.78;;;19.50;89.70;;;;;;4918739;29;20521;-77
2021/06/17 02:28:10;;;;;;;7.18;6.47;;;19.50;90.10;;;;;;4916134;29;20039;-78
2021/06/17 02:30:37;;;;;;;8.93;6.67;;;19.40;90.40;;;;;;4916693;29;20111;-79
2021/06/17 02:33:08;;;;;;;9.48;7.00;;;19.40;90.80;;;;;;4915861;29;20032;-79
2021/06/17 02:35:35;;;;;;;17.92;13.27;;;19.40;91.30;;;;;;4918048;29;20030;-79
2021/06/17 02:38:03;;;;;;;9.05;8.07;;;;;;;;;;4916927;29;20432;-77
2021/06/17 02:40:32;;;;;;;9.13;6.55;;;19.40;91.50;;;;;;4916562;29;20079;-78
2021/06/17 02:42:59;;;;;;;9.73;7.32;;;19.40;92.10;;;;;;4915728;29;20044;-80
2021/06/17 02:45:30;;;;;;;8.55;7.72;;;19.30;92.50;;;;;;4916708;29;20028;-80
2021/06/17 02:47:57;;;;;;;8.45;7.28;;;19.30;92.90;;;;;;4917909;29;20123;-78
2021/06/17 02:50:23;;;;;;;9.75;7.70;;;19.40;93.10;;;;;;4917352;29;20028;-79
2021/06/17 02:52:49;;;;;;;10.45;8.23;;;19.30;93.30;;;;;;4917774;29;20028;-78
2021/06/17 02:55:15;;;;;;;8.68;7.78;;;19.30;93.60;;;;;;4913945;29;20032;-81
2021/06/17 02:57:52;;;;;;;8.93;8.02;;;19.30;94.10;;;;;;4918685;29;20076;-77
2021/06/17 03:00:20;;;;;;;8.98;8.07;;;19.20;94.60;;;;;;4918753;29;20394;-79
2021/06/17 03:02:55;;;;;;;8.95;8.02;;;19.20;94.90;;;;;;4916177;29;20035;-78
2021/06/17 03:05:38;;;;;;;11.13;8.05;;;19.10;95.20;;;;;;4918886;29;20055;-78
2021/06/17 03:08:13;;;;;;;10.05;8.20;;;19.20;95.50;;;;;;4919723;29;20039;-79
2021/06/17 03:10:40;;;;;;;10.32;9.25;;;19.20;95.80;;;;;;4922094;29;20080;-78
2021/06/17 03:13:06;;;;;;;12.40;9.10;;;19.20;96.00;;;;;;4919175;29;20107;-79
2021/06/17 03:15:36;;;;;;;9.75;8.63;;;19.20;96.30;;;;;;4918191;29;20028;-79
2021/06/17 03:18:04;;;;;;;13.25;9.48;;;19.30;96.40;;;;;;4916417;29;20432;-77
2021/06/17 03:20:33;;;;;;;9.27;8.48;;;19.30;96.60;;;;;;4915325;29;20052;-77
2021/06/17 03:23:02;;;;;;;10.25;8.68;;;19.30;96.70;;;;;;4915570;29;20059;-78
2021/06/17 03:25:28;;;;;;;11.88;9.07;;;19.30;97.00;;;;;;4916100;29;20119;-77
2021/06/17 03:27:56;;;;;;;11.48;10.07;;;19.30;97.20;;;;;;4918191;29;20110;-78
2021/06/17 03:30:23;;;;;;;12.38;9.35;;;19.40;97.40;;;;;;4915453;29;20131;-77
2021/06/17 03:32:50;;;;;;;10.40;9.40;;;19.30;97.80;;;;;;4918616;29;20032;-78
2021/06/17 03:35:18;;;;;;;10.50;9.40;;;19.30;98.00;;;;;;4913324;29;20345;-77
2021/06/17 03:37:47;;;;;;;11.07;9.90;;;19.40;98.20;;;;;;4915390;29;20096;-78
2021/06/17 03:40:13;;;;;;;9.75;8.75;;;19.40;98.10;;;;;;4915458;29;20059;-78
2021/06/17 03:42:40;;;;;;;14.27;9.93;;;19.30;98.40;;;;;;4915731;29;20103;-78
2021/06/17 03:45:06;;;;;;;12.10;9.18;;;19.30;98.60;;;;;;4915531;29;20046;-78
2021/06/17 03:47:33;;;;;;;11.55;10.10;;;19.40;98.70;;;;;;4920651;29;20036;-79
2021/06/17 03:50:00;;;;;;;12.05;10.02;;;19.50;98.80;;;;;;4915473;29;20036;-77
2021/06/17 03:52:26;;;;;;;11.55;10.35;;;19.40;99.10;;;;;;4919267;29;20032;-77
2021/06/17 03:54:55;;;;;;;11.75;10.55;;;19.40;99.20;;;;;;4906264;29;20024;-78
2021/06/17 03:57:23;;;;;;;11.40;10.18;;;19.50;99.10;;;;;;4918468;29;20674;-79
2021/06/17 03:59:51;;;;;;;12.07;10.85;;;19.60;99.20;;;;;;4913931;29;20430;-78
2021/06/17 04:02:16;;;;;;;14.60;11.90;;;19.60;99.10;;;;;;4910543;29;20485;-78
2021/06/17 04:04:43;;;;;;;11.60;10.25;;;19.70;99.10;;;;;;4914165;29;20153;-78
2021/06/17 04:07:21;;;;;;;13.27;11.32;;;19.80;98.90;;;;;;4914369;29;20049;-78
2021/06/17 04:09:48;;;;;;;12.10;10.63;;;19.90;99.00;;;;;;4910564;29;20032;-78
2021/06/17 04:12:16;;;;;;;13.50;10.45;;;19.90;99.10;;;;;;4914133;29;20052;-78
2021/06/17 04:14:45;;;;;;;12.75;10.25;;;19.90;99.30;;;;;;4914445;29;20060;-79
2021/06/17 04:17:17;;;;;;;14.82;11.20;;;19.90;99.30;;;;;;4915031;29;20116;-79
2021/06/17 04:19:45;;;;;;;12.52;11.20;;;20.00;99.30;;;;;;4916963;29;20060;-79
2021/06/17 04:22:13;;;;;;;13.00;10.35;;;20.10;99.20;;;;;;4915301;29;20063;-78
2021/06/17 04:24:41;;;;;;;14.27;10.63;;;20.10;99.30;;;;;;4915220;29;20031;-77
2021/06/17 04:27:08;;;;;;;12.05;10.85;;;20.20;99.20;;;;;;4913742;29;20478;-77
2021/06/17 04:29:38;;;;;;;17.67;12.35;;;20.20;99.30;;;;;;4915059;29;20032;-78
2021/06/17 04:32:07;;;;;;;15.40;12.20;;;20.30;99.20;;;;;;4913309;29;20029;-79
2021/06/17 04:34:34;;;;;;;13.65;11.98;;;20.40;99.00;;;;;;4913959;29;20399;-78
2021/06/17 04:37:02;;;;;;;13.23;11.30;;;20.50;98.80;;;;;;4913014;29;20099;-78
2021/06/17 04:39:27;;;;;;;15.40;11.75;;;20.60;98.70;;;;;;4916431;29;20044;-78
2021/06/17 04:41:54;;;;;;;14.68;12.52;;;20.60;98.90;;;;;;4913806;29;20034;-79
2021/06/17 04:44:21;;;;;;;15.43;12.43;;;20.70;98.80;;;;;;4913527;29;20031;-77
2021/06/17 04:46:47;;;;;;;14.38;11.70;;;20.70;98.80;;;;;;4909570;29;20119;-79
2021/06/17 04:49:15;;;;;;;17.13;11.90;;;20.90;98.80;;;;;;4913697;29;20043;-79
2021/06/17 04:51:42;;;;;;;16.70;12.50;;;21.00;98.70;;;;;;4913780;29;20032;-79
2021/06/17 04:54:19;;;;;;;13.82;12.43;;;21.00;98.50;;;;;;4917727;29;20515;-80
2021/06/17 04:56:48;;;;;;;13.30;11.98;;;21.10;98.30;;;;;;4903994;29;20036;-78
2021/06/17 04:59:15;;;;;;;13.98;12.07;;;21.30;98.10;;;;;;4900230;29;20032;-79
2021/06/17 05:01:41;;;;;;;15.88;12.85;;;21.30;98.10;;;;;;4913349;29;20076;-77
2021/06/17 05:04:07;;;;;;;16.45;12.93;;;21.40;97.90;;;;;;4912708;29;20438;-77
2021/06/17 05:06:36;;;;;;;15.02;13.27;;;21.40;97.80;;;;;;4913644;29;20483;-79
2021/06/17 05:11:47;;;;;;;14.20;12.75;;;21.50;97.80;;;;;;4905335;29;20067;-80
2021/06/17 05:14:12;;;;;;;14.60;13.07;;;21.70;97.50;;;;;;4912477;29;20055;-78
2021/06/17 05:16:38;;;;;;;14.82;12.63;;;21.70;97.40;;;;;;4912957;29;20024;-80
2021/06/17 05:19:03;;;;;;;16.13;12.93;;;21.80;97.20;;;;;;4912460;29;20032;-78
2021/06/17 05:21:29;;;;;;;15.23;13.15;;;21.90;96.90;;;;;;4913186;29;20507;-78
2021/06/17 05:23:55;;;;;;;13.23;11.75;;;21.90;97.00;;;;;;4912941;29;20569;-78
2021/06/17 05:26:21;;;;;;;14.25;12.43;;;22.00;96.90;;;;;;4912832;29;20092;-78
2021/06/17 05:28:46;;;;;;;17.88;11.93;;;22.00;96.70;;;;;;4913793;29;20107;-78
2021/06/17 05:31:12;;;;;;;15.52;12.25;;;22.10;96.60;;;;;;4913600;29;20151;-79
2021/06/17 05:33:38;;;;;;;18.83;14.07;;;22.20;96.70;;;;;;4912842;29;20028;-78
2021/06/17 05:36:04;;;;;;;18.77;12.68;;;22.30;96.60;;;;;;4915967;29;20083;-79
2021/06/17 05:38:31;;;;;;;13.57;12.10;;;22.50;96.00;;;;;;4912373;29;20035;-78
2021/06/17 05:40:57;;;;;;;18.92;13.63;;;22.50;96.10;;;;;;4916328;29;20092;-79
2021/06/17 05:43:23;;;;;;;12.93;11.63;;;22.70;95.70;;;;;;4913067;29;20028;-82
2021/06/17 05:45:48;;;;;;;16.77;13.07;;;22.70;95.30;;;;;;4914384;29;20051;-83
2021/06/17 05:48:15;;;;;;;16.58;13.57;;;22.90;95.10;;;;;;4914433;29;20362;-82
2021/06/17 05:50:40;;;;;;;16.70;12.07;;;23.00;95.00;;;;;;4914346;29;20120;-80
2021/06/17 05:53:07;;;;;;;14.90;11.88;;;23.10;94.90;;;;;;4914702;29;20142;-79
2021/06/17 05:55:33;;;;;;;12.65;11.30;;;23.20;94.60;;;;;;4914302;29;20036;-80
2021/06/17 05:57:59;;;;;;;15.82;12.45;;;23.20;94.50;;;;;;4914622;29;20028;-79
2021/06/17 06:00:25;;;;;;;15.40;11.98;;;23.40;94.30;;;;;;4916053;29;20039;-80
2021/06/17 06:02:51;;;;;;;15.20;12.50;;;23.50;93.90;;;;;;4913211;29;20501;-79
2021/06/17 06:05:16;;;;;;;13.70;11.07;;;23.50;94.00;;;;;;4912441;29;20029;-79
2021/06/17 06:07:42;;;;;;;18.77;12.60;;;23.60;93.90;;;;;;4915169;29;20029;-80
2021/06/17 06:10:10;;;;;;;15.48;12.88;;;23.60;93.70;;;;;;4925549;29;20087;-80
2021/06/17 06:12:35;;;;;;;14.38;12.88;;;23.80;93.50;;;;;;4917879;29;20132;-77
2021/06/17 06:15:02;;;;;;;12.93;11.55;;;23.90;93.40;;;;;;4911909;29;20024;-80
2021/06/17 06:17:28;;;;;;;13.13;11.80;;;24.10;93.10;;;;;;4911930;29;20120;-80
2021/06/17 06:19:53;;;;;;;15.05;11.98;;;24.20;92.60;;;;;;4911892;29;20084;-79
2021/06/17 06:22:19;;;;;;;13.75;12.25;;;24.50;92.30;;;;;;4911782;29;20552;-80
2021/06/17 06:24:44;;;;;;;16.33;12.23;;;24.80;91.70;;;;;;4911646;29;20056;-80
2021/06/17 06:27:10;;;;;;;33.47;28.92;;;24.90;91.40;;;;;;4915708;29;20096;-84
2021/06/17 06:29:36;;;;;;;14.45;12.73;;;25.00;91.00;;;;;;4914323;29;20032;-83
2021/06/17 06:32:02;;;;;;;27.77;24.33;;;25.10;90.80;;;;;;4917956;29;20088;-83
2021/06/17 06:34:28;;;;;;;21.42;12.35;;;25.50;90.50;;;;;;4903384;29;20080;-80
2021/06/17 06:36:54;;;;;;;11.50;10.25;;;26.40;88.90;;;;;;4904493;29;20213;-79
2021/06/17 06:39:21;;;;;;;11.52;10.35;;;27.60;84.80;;;;;;4910508;29;20059;-79
2021/06/17 06:41:47;;;;;;;14.30;12.35;;;29.90;75.60;;;;;;4911513;29;20047;-79
2021/06/17 06:44:12;;;;;;;14.95;11.27;;;29.80;76.00;;;;;;4911194;29;20040;-79
2021/06/17 06:46:40;;;;;;;13.07;11.07;;;30.80;72.60;;;;;;4910610;29;20057;-79
2021/06/17 06:49:06;;;;;;;11.20;9.32;;;32.90;65.60;;;;;;4921819;29;20055;-80
2021/06/17 06:51:41;;;;;;;11.63;9.75;;;33.40;63.00;;;;;;4920901;29;20040;-79
2021/06/17 06:54:11;;;;;;;11.75;9.40;;;33.50;63.20;;;;;;4921163;29;20039;-81
2021/06/17 06:56:38;;;;;;;11.35;9.43;;;33.90;61.70;;;;;;4920446;29;20445;-81
2021/06/17 06:59:04;;;;;;;11.93;10.82;;;34.70;59.70;;;;;;4923351;29;20024;-81
2021/06/17 07:01:32;;;;;;;13.05;9.63;;;35.00;58.50;;;;;;4920168;29;20024;-80
2021/06/17 07:03:58;;;;;;;9.48;8.48;;;35.50;57.40;;;;;;4920963;29;20457;-80
2021/06/17 07:06:24;;;;;;;10.52;9.05;;;36.30;54.40;;;;;;4920484;29;20064;-79
2021/06/17 07:08:49;;;;;;;12.20;10.95;;;36.20;54.80;;;;;;4921120;29;20020;-80
2021/06/17 07:11:15;;;;;;;11.55;10.07;;;36.20;53.70;;;;;;4920495;29;20059;-80
2021/06/17 07:13:41;;;;;;;9.95;8.50;;;36.20;54.30;;;;;;4918468;29;20024;-80
2021/06/17 07:16:06;;;;;;;12.57;10.43;;;36.80;53.40;;;;;;4913906;29;20051;-80
2021/06/17 07:18:32;;;;;;;9.98;8.98;;;37.10;52.80;;;;;;4916365;29;20247;-80
2021/06/17 07:21:01;;;;;;;10.82;8.15;;;37.20;51.80;;;;;;4914675;29;20369;-80
2021/06/17 07:23:30;;;;;;;12.35;9.15;;;37.60;51.50;;;;;;4919263;29;20039;-80
2021/06/17 07:25:55;;;;;;;25.63;22.93;;;38.00;50.60;;;;;;4914067;29;20489;-80
2021/06/17 07:28:21;;;;;;;14.55;9.73;;;38.30;50.30;;;;;;4914503;29;20052;-81
2021/06/17 07:30:56;;;;;;;10.07;9.18;;;37.80;49.70;;;;;;4916822;29;20024;-80
2021/06/17 07:33:21;;;;;;;12.13;8.15;;;37.80;50.20;;;;;;4921990;29;20080;-80
2021/06/17 07:35:48;;;;;;;9.93;8.70;;;38.10;49.40;;;;;;4919496;29;20047;-81
2021/06/17 07:38:14;;;;;;;10.35;9.32;;;38.30;48.60;;;;;;4920031;29;20075;-80
2021/06/17 07:40:42;;;;;;;11.13;9.02;;;38.30;49.00;;;;;;4918752;29;20043;-80
2021/06/17 07:43:09;;;;;;;11.20;8.80;;;38.00;49.20;;;;;;4918665;29;20043;-79
2021/06/17 07:45:36;;;;;;;11.20;8.20;;;38.10;49.20;;;;;;4918166;29;20040;-81
2021/06/17 07:48:02;;;;;;;8.52;7.70;;;38.50;48.10;;;;;;4920883;29;20066;-80
2021/06/17 07:50:31;;;;;;;8.45;7.68;;;39.20;47.70;;;;;;4919598;29;20028;-81
2021/06/17 07:52:57;;;;;;;8.57;7.60;;;39.30;47.30;;;;;;4922757;29;20549;-80
2021/06/17 07:55:23;;;;;;;8.10;6.70;;;38.60;46.60;;;;;;4921116;29;20040;-81
2021/06/17 07:57:48;;;;;;;8.80;6.80;;;39.40;46.70;;;;;;4922035;29;20024;-81
2021/06/17 08:00:14;;;;;;;8.02;7.30;;;39.70;46.50;;;;;;4920729;29;20322;-80
2021/06/17 08:02:42;;;;;;;8.82;7.97;;;39.00;47.00;;;;;;4919990;29;20020;-83
2021/06/17 08:05:11;;;;;;;6.40;5.78;;;39.20;46.10;;;;;;4923185;29;20038;-85
2021/06/17 08:07:37;;;;;;;7.35;6.63;;;39.20;45.90;;;;;;4909663;29;20115;-83
2021/06/17 08:10:06;;;;;;;7.32;6.50;;;39.90;44.90;;;;;;4921473;29;20084;-84
2021/06/17 08:12:32;;;;;;;7.18;6.47;;;40.10;44.90;;;;;;4925887;29;20104;-79
2021/06/17 08:14:57;;;;;;;11.25;10.10;;;40.40;45.00;;;;;;4922183;29;20032;-81
2021/06/17 08:17:23;;;;;;;7.55;6.80;;;39.80;44.70;;;;;;4924680;29;20036;-80
2021/06/17 08:19:49;;;;;;;10.95;8.88;;;40.20;44.40;;;;;;4923518;29;20035;-80
2021/06/17 08:22:14;;;;;;;8.48;7.70;;;40.20;44.40;;;;;;4919357;29;20048;-80
2021/06/17 08:24:45;;;;;;;7.13;6.53;;;40.30;44.10;;;;;;4921164;29;20027;-80
2021/06/17 08:27:12;;;;;;;7.72;7.13;;;40.20;44.50;;;;;;4918827;29;20054;-82
2021/06/17 08:29:37;;;;;;;9.43;6.40;;;38.80;44.40;;;;;;4916628;29;20031;-80
2021/06/17 08:32:05;;;;;;;9.60;6.38;;;39.60;44.60;;;;;;4917246;29;20111;-80
2021/06/17 08:34:30;;;;;;;8.57;6.28;;;39.50;44.40;;;;;;4915744;29;20028;-80
2021/06/17 08:36:56;;;;;;;9.00;7.47;;;39.10;44.50;;;;;;4919771;29;20393;-77
2021/06/17 08:39:22;;;;;;;7.00;6.40;;;40.00;43.80;;;;;;4917808;29;20055;-78
2021/06/17 08:41:48;;;;;;;7.20;6.15;;;40.20;43.90;;;;;;4916793;29;20035;-78
2021/06/17 08:44:14;;;;;;;7.18;6.47;;;40.50;43.60;;;;;;4917722;29;20032;-78
2021/06/17 08:46:43;;;;;;;7.03;6.43;;;40.20;43.40;;;;;;4919180;29;20059;-79
2021/06/17 08:49:09;;;;;;;7.15;6.43;;;40.80;43.10;;;;;;4925268;29;20068;-78
2021/06/17 08:51:39;;;;;;;6.85;6.25;;;40.70;43.40;;;;;;4932910;29;20009;-80
2021/06/17 08:54:05;;;;;;;7.65;5.90;;;39.50;43.70;;;;;;4936329;29;20012;-79
2021/06/17 08:56:31;;;;;;;6.50;5.85;;;38.40;44.60;;;;;;4934708;29;20254;-79
2021/06/17 08:58:57;;;;;;;7.40;6.63;;;38.40;44.70;;;;;;4930014;29;20024;-80
2021/06/17 09:01:23;;;;;;;6.80;6.20;;;38.80;44.80;;;;;;4934694;29;20276;-78
2021/06/17 09:03:50;;;;;;;8.63;6.63;;;40.20;43.40;;;;;;4933293;29;20075;-79
2021/06/17 09:06:18;;;;;;;6.55;5.97;;;40.80;42.70;;;;;;4933668;29;20032;-79
2021/06/17 09:09:00;;;;;;;6.55;5.95;;;41.60;42.30;;;;;;4926931;29;20104;-79
2021/06/17 09:11:27;;;;;;;8.27;6.70;;;40.70;42.50;;;;;;4927475;29;20032;-79
2021/06/17 09:14:14;;;;;;;6.40;5.72;;;41.30;42.30;;;;;;4930360;29;20147;-74
2021/06/17 09:16:39;;;;;;;6.20;5.57;;;41.50;41.70;;;;;;4921813;29;20008;-74
2021/06/17 09:19:05;;;;;;;7.60;6.90;;;41.80;41.20;;;;;;4922771;29;20411;-74
2021/06/17 09:21:31;;;;;;;8.67;5.70;;;41.40;41.90;;;;;;4929246;29;20270;-74
2021/06/17 09:23:58;;;;;;;7.45;6.75;;;41.90;41.60;;;;;;4928862;29;20768;-75
2021/06/17 09:26:24;;;;;;;7.18;6.50;;;41.50;42.10;;;;;;4928088;29;20036;-77
2021/06/17 09:28:52;;;;;;;7.60;6.72;;;41.60;41.30;;;;;;4929147;29;20026;-75
2021/06/17 09:31:40;;;;;;;6.33;5.53;;;41.60;41.20;;;;;;4928117;29;20039;-74
2021/06/17 09:34:07;;;;;;;6.60;6.00;;;42.40;40.90;;;;;;4928589;29;20137;-74
2021/06/17 09:36:35;;;;;;;6.10;5.60;;;41.70;41.20;;;;;;4918011;29;20016;-73
2021/06/17 09:39:11;;;;;;;6.82;5.82;;;41.70;40.90;;;;;;4928458;29;20064;-74
2021/06/17 09:41:41;;;;;;;7.85;6.47;;;42.70;41.20;;;;;;4925651;29;20020;-74
2021/06/17 09:44:33;;;;;;;7.13;5.57;;;42.30;40.70;;;;;;4929251;29;20047;-74
2021/06/17 09:47:08;;;;;;;8.85;7.97;;;42.40;40.10;;;;;;4929655;29;20072;-74
2021/06/17 09:49:39;;;;;;;7.03;5.22;;;41.70;40.70;;;;;;4930636;29;20095;-74
2021/06/17 09:52:06;;;;;;;6.45;5.07;;;41.50;40.80;;;;;;4927559;29;20016;-74
2021/06/17 09:54:32;;;;;;;6.90;6.13;;;42.70;40.00;;;;;;4928759;29;20020;-75
2021/06/17 09:57:04;;;;;;;5.55;4.32;;;42.10;40.40;;;;;;4929004;29;20055;-75
2021/06/17 09:59:53;;;;;;;5.90;5.07;;;42.60;39.50;;;;;;4928109;29;20016;-75
2021/06/17 10:02:33;;;;;;;7.50;5.50;;;42.70;39.90;;;;;;4923578;29;20016;-75
2021/06/17 10:05:16;;;;;;;6.47;5.70;;;42.10;39.90;;;;;;4925245;29;20342;-75
2021/06/17 10:07:43;;;;;;;6.13;4.90;;;42.30;39.70;;;;;;4917069;29;20031;-72
2021/06/17 10:10:10;;;;;;;6.47;4.90;;;41.90;39.70;;;;;;4927161;29;20044;-74
2021/06/17 10:12:37;;;;;;;7.10;5.63;;;41.80;39.60;;;;;;4926309;29;20032;-74
2021/06/17 10:15:04;;;;;;;7.35;5.88;;;41.00;40.80;;;;;;4927469;29;20056;-74
2021/06/17 10:17:30;;;;;;;5.85;4.90;;;42.20;39.60;;;;;;4927661;29;20116;-74
2021/06/17 10:19:56;;;;;;;5.78;4.90;;;42.50;39.30;;;;;;4923486;29;20448;-74
2021/06/17 10:22:32;;;;;;;10.55;6.18;;;42.20;39.10;;;;;;4917058;29;20469;-75
2021/06/17 10:24:58;;;;;;;5.40;4.65;;;40.70;40.30;;;;;;4914701;29;20024;-75
2021/06/17 10:27:35;;;;;;;6.85;5.57;;;41.00;40.10;;;;;;4919669;29;20044;-75
2021/06/17 10:30:02;;;;;;;5.90;4.70;;;41.70;39.60;;;;;;4915387;29;20027;-76
2021/06/17 10:32:40;;;;;;;5.93;4.88;;;41.60;39.30;;;;;;4919592;29;20024;-76
2021/06/17 10:35:09;;;;;;;6.18;4.32;;;42.10;39.00;;;;;;4918781;29;21367;-75
2021/06/17 10:37:47;;;;;;;5.72;5.13;;;42.20;38.80;;;;;;4920764;29;20065;-75
2021/06/17 10:40:12;;;;;;;7.15;4.32;;;42.20;39.00;;;;;;4906446;29;20070;-75
2021/06/17 10:42:48;;;;;;;8.02;5.30;;;42.20;38.90;;;;;;4901468;29;20028;-75
2021/06/17 10:45:34;;;;;;;5.10;4.53;;;41.60;39.10;;;;;;4896926;29;20044;-74
2021/06/17 10:48:24;;;;;;;5.55;5.05;;;41.40;39.40;;;;;;4897660;29;20035;-75
2021/06/17 10:51:01;;;;;;;6.72;5.88;;;41.90;39.10;;;;;;4902729;29;20032;-75
2021/06/17 10:53:35;;;;;;;6.85;5.07;;;41.30;39.30;;;;;;4897822;29;20039;-75
2021/06/17 10:56:10;;;;;;;7.45;5.30;;;40.60;39.70;;;;;;4896318;29;20028;-75
2021/06/17 10:58:41;;;;;;;5.20;4.63;;;41.50;39.30;;;;;;4898897;29;20108;-75
2021/06/17 11:01:29;;;;;;;8.43;5.68;;;41.70;39.20;;;;;;4897730;29;20501;-75
2021/06/17 11:04:05;;;;;;;6.55;6.00;;;41.70;38.50;;;;;;4895567;29;20115;-76
2021/06/17 11:06:52;;;;;;;7.10;4.50;;;41.40;38.50;;;;;;4895715;29;20025;-76
2021/06/17 11:09:46;;;;;;;4.72;4.32;;;42.00;38.80;;;;;;4897252;29;20039;-76
2021/06/17 11:12:18;;;;;;;9.80;5.50;;;41.70;38.60;;;;;;4895747;29;20029;-75
2021/06/17 11:14:49;;;;;;;7.38;5.20;;;41.40;38.80;;;;;;4894918;29;20036;-76
2021/06/17 11:17:29;;;;;;;6.80;5.20;;;40.20;39.80;;;;;;4897407;29;20036;-76
2021/06/17 11:19:55;;;;;;;5.85;5.35;;;41.30;39.50;;;;;;4893704;29;20032;-75
2021/06/17 11:22:47;;;;;;;5.15;4.65;;;41.60;38.90;;;;;;4895914;29;20052;-75
2021/06/17 11:25:16;;;;;;;4.82;4.43;;;42.10;38.30;;;;;;4892594;29;20123;-76
2021/06/17 11:27:59;;;;;;;5.20;4.70;;;42.00;38.40;;;;;;4895928;29;20022;-76
2021/06/17 11:30:43;;;;;;;6.88;5.07;;;41.90;38.50;;;;;;4894434;29;20726;-76
2021/06/17 11:33:18;;;;;;;5.75;4.78;;;41.70;39.20;;;;;;4881133;29;20116;-76
2021/06/17 11:35:50;;;;;;;6.05;4.43;;;41.90;37.90;;;;;;4899293;29;20031;-76
2021/06/17 11:38:25;;;;;;;7.00;5.20;;;41.40;38.40;;;;;;4895157;29;20024;-76
2021/06/17 11:40:52;;;;;;;5.10;4.30;;;41.20;38.90;;;;;;4900067;29;20040;-75
2021/06/17 11:43:28;;;;;;;6.38;5.38;;;41.50;38.80;;;;;;4901006;29;20071;-77
2021/06/17 11:45:55;;;;;;;6.13;5.43;;;41.20;38.20;;;;;;4900140;29;20039;-77
2021/06/17 11:48:21;;;;;;;7.45;5.15;;;42.20;38.20;;;;;;4902351;29;20415;-75
2021/06/17 11:50:49;;;;;;;9.18;5.57;;;41.00;38.50;;;;;;4903598;29;20031;-78
2021/06/17 11:53:26;;;;;;;23.83;7.07;;;40.90;38.60;;;;;;4903904;29;20029;-76
2021/06/17 11:55:57;;;;;;;5.50;5.05;;;40.80;39.20;;;;;;4900717;29;20789;-77
2021/06/17 11:58:31;;;;;;;5.47;4.15;;;41.00;39.10;;;;;;4904743;29;20033;-76
2021/06/17 12:00:58;;;;;;;5.88;5.35;;;41.00;39.10;;;;;;4893478;29;20111;-77
2021/06/17 12:03:24;;;;;;;5.53;5.03;;;40.50;39.30;;;;;;4901865;29;20036;-77
2021/06/17 12:05:51;;;;;;;10.30;5.32;;;40.40;39.70;;;;;;4901204;29;20033;-77
2021/06/17 12:08:23;;;;;;;7.57;5.18;;;40.60;39.50;;;;;;4899072;29;20037;-76
2021/06/17 12:10:57;;;;;;;8.10;5.07;;;41.40;39.30;;;;;;4898541;29;20051;-76
2021/06/17 12:13:23;;;;;;;5.55;5.03;;;41.40;38.90;;;;;;4902461;29;20031;-76
2021/06/17 12:15:52;;;;;;;6.13;4.63;;;41.20;38.80;;;;;;4903581;29;20413;-76
2021/06/17 12:18:18;;;;;;;6.65;6.05;;;40.50;39.50;;;;;;4907592;29;20088;-76
2021/06/17 12:20:45;;;;;;;6.40;4.75;;;40.60;39.40;;;;;;4901039;29;20064;-75
2021/06/17 12:23:24;;;;;;;5.15;4.65;;;40.50;38.40;;;;;;4900483;29;20126;-76
2021/06/17 12:26:01;;;;;;;4.65;4.10;;;40.60;38.90;;;;;;4898883;29;20123;-76
2021/06/17 12:28:29;;;;;;;5.50;4.65;;;41.30;38.30;;;;;;4895505;29;20112;-76
2021/06/17 12:30:57;;;;;;;9.70;6.00;;;40.80;38.40;;;;;;4885605;29;20520;-76
2021/06/17 12:33:31;;;;;;;5.78;4.30;;;40.60;38.40;;;;;;4896377;29;20032;-75
2021/06/17 12:36:05;;;;;;;5.57;4.88;;;40.70;38.70;;;;;;4895435;29;20047;-74
2021/06/17 12:38:32;;;;;;;4.95;4.50;;;40.80;38.00;;;;;;4895982;29;20533;-74
2021/06/17 12:41:18;;;;;;;4.60;4.22;;;40.90;38.50;;;;;;4920456;29;20552;-74
2021/06/17 12:43:51;;;;;;;6.13;4.90;;;40.70;39.00;;;;;;4922573;29;20849;-75
2021/06/17 12:46:22;;;;;;;5.38;3.88;;;40.90;38.50;;;;;;4919231;29;20052;-75
2021/06/17 12:54:22;;;;;;;8.48;6.90;;;40.90;38.20;;;;;;4910325;29;20042;-75
2021/06/17 12:57:10;;;;;;;4.88;4.38;;;40.60;37.90;;;;;;4895037;29;20052;-75
2021/06/17 13:00:08;;;;;;;4.87;4.47;;;41.00;37.60;;;;;;4909728;29;20032;-75